Time;durP1;ratioP1;P1;durP2;ratioP2;P2;SDS_P1;SDS_P2;PMS_P1;PMS_P2;Temp;Humidity;BMP_temperature;BMP_pressure;BME280_temperature;BME280_humidity;BME280_pressure;Samples;Min_cycle;Max_cycle;Signal;HPM_P1;HPM_P2
2022/06/02 00:32:17;;;;;;;;;4.00;4.00;;;;;;;;4802697;29;47068;-88
2022/06/02 00:35:05;;;;;;;;;3.00;3.00;;;;;;;;4858942;29;47104;-88
2022/06/02 00:37:48;;;;;;;;;2.00;2.00;;;;;;;;4879149;29;47026;-88
2022/06/02 00:40:30;;;;;;;;;3.50;3.50;;;;;;;;4866900;29;46992;-88
2022/06/02 00:43:21;;;;;;;;;4.75;4.00;;;;;;;;4899754;28;47147;-87
2022/06/02 00:49:12;;;;;;;;;3.50;3.50;;;;;;;;4991385;28;48028;-88
2022/06/02 00:51:43;;;;;;;;;3.00;3.00;;;;;;;;5001156;28;47165;-88
2022/06/02 00:57:44;;;;;;;;;;;;;;;;;;;;;
2022/06/02 01:00:23;;;;;;;;;8.25;4.00;;;;;;;;5002115;28;77126;-87
2022/06/02 01:02:53;;;;;;;;;5.00;4.00;;;;;;;;4989701;28;47255;-88
2022/06/02 01:05:41;;;;;;;;;5.00;3.50;;;;;;;;4983062;28;47014;-88
2022/06/02 01:08:25;;;;;;;;;4.75;4.00;;;;;;;;4974537;28;46963;-88
2022/06/02 01:10:57;;;;;;;;;3.00;3.00;;;;;;;;4971029;28;49884;-88
2022/06/02 01:13:46;;;;;;;;;3.00;3.00;;;;;;;;4982820;28;46975;-88
2022/06/02 01:16:16;;;;;;;;;3.25;3.25;;;;;;;;4974817;28;47026;-88
2022/06/02 01:19:00;;;;;;;;;4.25;4.25;;;;;;;;4982800;28;47200;-88
2022/06/02 01:21:54;;;;;;;;;5.00;4.00;;;;;;;;4982346;28;49083;-88
2022/06/02 01:24:19;;;;;;;;;4.00;4.00;;;;;;;;5003109;28;46961;-88
2022/06/02 01:26:56;;;;;;;;;4.00;4.00;;;;;;;;4983854;28;46868;-87
2022/06/02 01:29:36;;;;;;;;;4.25;4.00;;;;;;;;4983028;28;46832;-88
2022/06/02 01:32:09;;;;;;;;;5.00;3.00;;;;;;;;5001684;28;47959;-88
2022/06/02 01:34:41;;;;;;;;;3.25;3.25;;;;;;;;4982616;28;47021;-88
2022/06/02 01:37:20;;;;;;;;;4.50;4.50;;;;;;;;4982865;28;46924;-87
2022/06/02 01:40:06;;;;;;;;;5.00;4.00;;;;;;;;5010643;28;46931;-88
2022/06/02 01:42:37;;;;;;;;;4.00;4.00;;;;;;;;4968141;28;48213;-88
2022/06/02 01:45:06;;;;;;;;;3.50;3.25;;;;;;;;4982669;28;47222;-88
2022/06/02 01:47:40;;;;;;;;;4.00;3.75;;;;;;;;5008798;28;47056;-88
2022/06/02 01:50:13;;;;;;;;;5.00;3.75;;;;;;;;4981872;28;47125;-87
2022/06/02 01:52:57;;;;;;;;;3.50;3.00;;;;;;;;4983250;28;48570;-88
2022/06/02 01:55:42;;;;;;;;;5.50;4.25;;;;;;;;4982194;28;47568;-88
2022/06/02 01:58:16;;;;;;;;;4.75;4.75;;;;;;;;5001073;28;46925;-87
2022/06/02 02:00:45;;;;;;;;;4.75;4.75;;;;;;;;4980738;28;47357;-88
2022/06/02 02:03:34;;;;;;;;;4.00;4.00;;;;;;;;4982151;28;47168;-87
2022/06/02 02:05:59;;;;;;;;;6.00;5.00;;;;;;;;4970798;28;47732;-87
2022/06/02 02:08:41;;;;;;;;;7.25;7.25;;;;;;;;4983111;28;47175;-87
2022/06/02 02:11:12;;;;;;;;;8.50;8.00;;;;;;;;4982391;28;47314;-88
2022/06/02 02:13:49;;;;;;;;;5.00;5.00;;;;;;;;4981850;28;47011;-87
2022/06/02 02:16:14;;;;;;;;;5.00;5.00;;;;;;;;4999895;28;47016;-87
2022/06/02 02:18:58;;;;;;;;;7.25;6.75;;;;;;;;5004294;28;47106;-87
2022/06/02 02:21:37;;;;;;;;;8.00;6.00;;;;;;;;4987070;28;47361;-86
2022/06/02 02:24:07;;;;;;;;;6.00;5.00;;;;;;;;4999837;28;48224;-87
2022/06/02 02:26:36;;;;;;;;;8.25;6.75;;;;;;;;4981628;28;46889;-87
2022/06/02 02:29:26;;;;;;;;;7.25;6.00;;;;;;;;4999546;28;46976;-88
2022/06/02 02:32:13;;;;;;;;;5.75;5.75;;;;;;;;4969562;28;46793;-88
2022/06/02 02:34:45;;;;;;;;;7.25;7.25;;;;;;;;5000355;28;47718;-88
2022/06/02 02:37:27;;;;;;;;;5.75;5.50;;;;;;;;4999777;28;46785;-88
2022/06/02 02:40:09;;;;;;;;;7.00;6.25;;;;;;;;4999761;28;47117;-88
2022/06/02 02:42:48;;;;;;;;;6.00;6.00;;;;;;;;4999320;28;46915;-87
2022/06/02 02:45:13;;;;;;;;;7.00;6.25;;;;;;;;4981651;28;49390;-88
2022/06/02 02:47:51;;;;;;;;;7.75;7.00;;;;;;;;4981586;28;46929;-87
2022/06/02 02:50:17;;;;;;;;;8.50;7.00;;;;;;;;4982552;28;46941;-88
2022/06/02 02:52:52;;;;;;;;;8.50;8.50;;;;;;;;4999278;28;47228;-87
2022/06/02 02:55:20;;;;;;;;;6.25;6.25;;;;;;;;4999400;28;46877;-87
2022/06/02 02:57:55;;;;;;;;;6.25;5.75;;;;;;;;4991833;28;47753;-87
2022/06/02 03:00:28;;;;;;;;;6.75;6.00;;;;;;;;5009347;28;47101;-87
2022/06/02 03:03:12;;;;;;;;;7.00;6.75;;;;;;;;4999297;28;46995;-87
2022/06/02 03:05:44;;;;;;;;;7.50;7.50;;;;;;;;4981104;28;47037;-87
2022/06/02 03:08:12;;;;;;;;;8.00;6.25;;;;;;;;4982308;28;47036;-88
2022/06/02 03:10:40;;;;;;;;;8.75;8.75;;;;;;;;4981380;28;46849;-87
2022/06/02 03:13:14;;;;;;;;;6.75;6.00;;;;;;;;4999040;28;47066;-87
2022/06/02 03:15:51;;;;;;;;;8.50;7.50;;;;;;;;4987554;28;48588;-86
2022/06/02 03:18:26;;;;;;;;;;;;;;;;;;;;;
2022/06/02 03:20:58;;;;;;;;;7.00;7.00;;;;;;;;4997845;28;72996;-87
2022/06/02 03:23:39;;;;;;;;;8.25;7.00;;;;;;;;4986703;28;47100;-88
2022/06/02 03:26:11;;;;;;;;;8.00;7.50;;;;;;;;4981159;28;47212;-87
2022/06/02 03:28:51;;;;;;;;;6.25;5.00;;;;;;;;5002965;28;46903;-87
2022/06/02 03:31:33;;;;;;;;;11.00;7.00;;;;;;;;4981125;28;47005;-87
2022/06/02 03:34:21;;;;;;;;;8.00;8.00;;;;;;;;4998940;28;47127;-88
2022/06/02 03:36:56;;;;;;;;;4.50;4.50;;;;;;;;4986821;28;49299;-87
2022/06/02 03:39:24;;;;;;;;;9.50;8.00;;;;;;;;4985660;28;47914;-88
2022/06/02 03:42:12;;;;;;;;;;;;;;;;;;;;;
2022/06/02 03:44:43;;;;;;;;;6.75;6.75;;;;;;;;4996083;28;67688;-88
2022/06/02 03:47:24;;;;;;;;;7.50;7.00;;;;;;;;4980812;28;49406;-88
2022/06/02 03:49:58;;;;;;;;;6.00;6.00;;;;;;;;4983218;28;47127;-88
2022/06/02 03:52:43;;;;;;;;;;;;;;;;;;;;;
2022/06/02 03:55:47;;;;;;;;;;;;;;;;;;;;;
2022/06/02 03:58:36;;;;;;;;;7.50;7.00;;;;;;;;4988825;28;76768;-87
2022/06/02 04:04:02;;;;;;;;;6.25;6.25;;;;;;;;4974731;28;47031;-87
2022/06/02 04:06:56;;;;;;;;;;;;;;;;;;;;;
2022/06/02 04:09:47;;;;;;;;;7.50;7.50;;;;;;;;4997423;28;77010;-87
2022/06/02 04:14:58;;;;;;;;;8.25;7.00;;;;;;;;5002267;28;46914;-88
2022/06/02 04:17:31;;;;;;;;;10.00;9.00;;;;;;;;4980629;28;47295;-87
2022/06/02 04:22:50;;;;;;;;;9.25;8.75;;;;;;;;4997823;28;46727;-87
2022/06/02 04:25:27;;;;;;;;;8.50;8.00;;;;;;;;4980320;28;47584;-87
2022/06/02 04:27:58;;;;;;;;;9.50;9.50;;;;;;;;4986574;28;47294;-87
2022/06/02 04:31:00;;;;;;;;;9.25;7.00;;;;;;;;4977295;28;48418;-87
2022/06/02 04:33:38;;;;;;;;;7.50;7.50;;;;;;;;4958595;28;47621;-87
2022/06/02 04:36:19;;;;;;;;;8.00;8.00;;;;;;;;4998199;28;46993;-88
2022/06/02 04:38:58;;;;;;;;;9.75;8.75;;;;;;;;4997979;28;47080;-88
2022/06/02 04:41:36;;;;;;;;;;;;;;;;;;;;;
2022/06/02 04:44:21;;;;;;;;;10.00;10.00;;;;;;;;4998477;28;74519;-87
2022/06/02 04:47:28;;;;;;;;;;;;;;;;;;;;;
2022/06/02 04:50:15;;;;;;;;;9.75;9.00;;;;;;;;4983025;28;67256;-87
2022/06/02 04:59:02;;;;;;;;;;;;;;;;;;;;;
2022/06/02 05:01:57;;;;;;;;;;;;;;;;;;;;;
2022/06/02 05:04:51;;;;;;;;;;;;;;;;;;;;;
2022/06/02 05:14:03;;;;;;;;;;;;;;;;;;;;;
2022/06/02 05:17:04;;;;;;;;;9.50;8.50;;;;;;;;4897462;29;77093;-88
2022/06/02 05:32:33;;;;;;;;;;;;;;;;;;;;;
2022/06/02 05:54:27;;;;;;;;;9.25;9.25;;;;;;;;4886317;29;48290;-91
2022/06/02 05:57:33;;;;;;;;;;;;;;;;;;;;;
2022/06/02 06:06:32;;;;;;;;;13.75;12.75;;;;;;;;4923056;28;47428;-87
2022/06/02 07:02:30;;;;;;;;;;;;;;;;;;;;;
2022/06/02 07:20:57;;;;;;;;;;;;;;;;;;;;;
2022/06/02 07:29:42;;;;;;;;;;;;;;;;;;;;;
2022/06/02 07:35:51;;;;;;;;;;;;;;;;;;;;;
2022/06/02 07:38:37;;;;;;;;;;;;;;;;;;;;;
2022/06/02 07:57:15;;;;;;;;;;;;;;;;;;;;;
2022/06/02 07:59:43;;;;;;;;;11.00;7.25;;;;;;;;4936566;28;72938;-84
2022/06/02 08:08:35;;;;;;;;;8.50;7.00;;;;;;;;5018113;28;47211;-85
2022/06/02 08:11:24;;;;;;;;;6.75;6.75;;;;;;;;5018493;28;46998;-85
2022/06/02 08:24:18;;;;;;;;;7.50;7.50;;;;;;;;4873824;29;46977;-85
2022/06/02 08:27:39;;;;;;;;;;;;;;;;;;;;;
2022/06/02 08:39:20;;;;;;;;;;;;;;;;;;;;;
2022/06/02 08:45:22;;;;;;;;;;;;;;;;;;;;;
2022/06/02 08:51:07;;;;;;;;;7.75;7.75;;;;;;;;4861247;29;47684;-84
2022/06/02 08:53:47;;;;;;;;;9.25;8.00;;;;;;;;4863708;29;49808;-84
2022/06/02 08:56:16;;;;;;;;;6.00;6.00;;;;;;;;4877848;29;47299;-84
2022/06/02 08:59:07;;;;;;;;;8.00;7.00;;;;;;;;4896559;28;47079;-84
2022/06/02 09:01:44;;;;;;;;;7.75;5.75;;;;;;;;4901379;29;46929;-84
2022/06/02 09:04:50;;;;;;;;;6.75;6.75;;;;;;;;4979938;28;48779;-84
2022/06/02 09:07:33;;;;;;;;;8.00;7.00;;;;;;;;4998989;28;46836;-84
2022/06/02 09:10:18;;;;;;;;;6.50;5.50;;;;;;;;5001439;28;46832;-84
2022/06/02 09:12:56;;;;;;;;;;;;;;;;;;;;;
2022/06/02 09:15:43;;;;;;;;;7.75;7.00;;;;;;;;5000169;28;75565;-83
2022/06/02 09:18:35;;;;;;;;;5.50;5.25;;;;;;;;4983384;28;47443;-84
2022/06/02 09:21:25;;;;;;;;;6.50;6.00;;;;;;;;4983153;28;47102;-83
2022/06/02 09:24:05;;;;;;;;;4.75;4.75;;;;;;;;4971389;28;46933;-83
2022/06/02 09:26:42;;;;;;;;;5.75;5.75;;;;;;;;5000889;28;47213;-83
2022/06/02 09:29:53;;;;;;;;;;;;;;;;;;;;;
2022/06/02 09:32:39;;;;;;;;;6.75;6.75;;;;;;;;4991226;28;72930;-83
2022/06/02 09:38:15;;;;;;;;;6.50;5.00;;;;;;;;5000693;28;47340;-83
2022/06/02 09:40:56;;;;;;;;;9.00;7.50;;;;;;;;5000981;28;47088;-83
2022/06/02 09:43:40;;;;;;;;;3.00;3.00;;;;;;;;4982990;28;47204;-83
2022/06/02 09:46:24;;;;;;;;;7.50;6.25;;;;;;;;4983140;28;47305;-83
2022/06/02 09:49:05;;;;;;;;;7.00;6.75;;;;;;;;5000724;28;46957;-83
2022/06/02 09:51:36;;;;;;;;;7.00;6.00;;;;;;;;5000732;28;46867;-83
2022/06/02 09:54:21;;;;;;;;;7.25;5.75;;;;;;;;4982034;28;47149;-83
2022/06/02 09:56:46;;;;;;;;;7.75;6.50;;;;;;;;5000617;28;47177;-83
2022/06/02 09:59:26;;;;;;;;;7.50;6.50;;;;;;;;4982665;28;48416;-85
2022/06/02 10:02:10;;;;;;;;;8.00;7.50;;;;;;;;4990908;28;47080;-84
2022/06/02 10:04:38;;;;;;;;;7.00;5.75;;;;;;;;5002636;28;47044;-84
2022/06/02 10:07:06;;;;;;;;;6.50;5.50;;;;;;;;5020407;28;46914;-84
2022/06/02 10:09:42;;;;;;;;;5.75;5.75;;;;;;;;5002540;28;48630;-84
2022/06/02 10:14:58;;;;;;;;;6.00;6.00;;;;;;;;5020382;28;46815;-84
2022/06/02 10:17:26;;;;;;;;;6.25;6.25;;;;;;;;5020563;28;47267;-84
2022/06/02 10:20:19;;;;;;;;;7.00;5.50;;;;;;;;5020298;28;47177;-84
2022/06/02 10:22:59;;;;;;;;;6.00;5.00;;;;;;;;5002122;28;46988;-84
2022/06/02 10:25:47;;;;;;;;;;;;;;;;;;;;;
2022/06/02 10:28:25;;;;;;;;;;;;;;;;;;;;;
2022/06/02 10:31:15;;;;;;;;;4.75;4.75;;;;;;;;5019212;28;76886;-84
2022/06/02 10:33:52;;;;;;;;;6.75;5.75;;;;;;;;5002095;28;46784;-84
2022/06/02 10:36:20;;;;;;;;;5.50;5.50;;;;;;;;5001833;28;47008;-84
2022/06/02 10:39:06;;;;;;;;;4.25;4.25;;;;;;;;5002275;28;47038;-84
2022/06/02 10:41:40;;;;;;;;;6.25;6.25;;;;;;;;5019964;28;48128;-84
2022/06/02 10:44:44;;;;;;;;;;;;;;;;;;;;;
2022/06/02 10:47:41;;;;;;;;;;;;;;;;;;;;;
2022/06/02 10:50:24;;;;;;;;;4.00;4.00;;;;;;;;5018991;28;67819;-84
2022/06/02 10:53:11;;;;;;;;;4.75;4.75;;;;;;;;5001583;28;49432;-84
2022/06/02 10:56:08;;;;;;;;;6.25;5.25;;;;;;;;5019559;28;46955;-84
2022/06/02 10:58:55;;;;;;;;;6.00;5.50;;;;;;;;5001315;28;47005;-84
2022/06/02 11:01:26;;;;;;;;;6.50;6.50;;;;;;;;5001739;28;47033;-85
2022/06/02 11:04:13;;;;;;;;;4.00;4.00;;;;;;;;5001434;28;48856;-84
2022/06/02 11:06:53;;;;;;;;;3.75;3.75;;;;;;;;5001164;28;47014;-84
2022/06/02 11:09:57;;;;;;;;;4.50;3.50;;;;;;;;5019538;28;46868;-84
2022/06/02 11:13:03;;;;;;;;;4.50;3.75;;;;;;;;4903495;28;47274;-84
2022/06/02 11:15:26;;;;;;;;;4.50;4.50;;;;;;;;4918838;28;47807;-84
2022/06/02 11:18:13;;;;;;;;;4.25;4.25;;;;;;;;4974075;28;46948;-84
2022/06/02 11:21:04;;;;;;;;;;;;;;;;;;;;;
2022/06/02 11:23:35;;;;;;;;;5.25;5.25;;;;;;;;5016487;28;67979;-84
2022/06/02 11:26:21;;;;;;;;;5.25;4.50;;;;;;;;5001320;28;49418;-84
2022/06/02 11:28:56;;;;;;;;;5.25;5.00;;;;;;;;5007499;28;47140;-84
2022/06/02 11:31:45;;;;;;;;;4.75;3.75;;;;;;;;5001285;28;47129;-84
2022/06/02 11:34:37;;;;;;;;;4.50;4.25;;;;;;;;5019283;28;46824;-84
2022/06/02 11:37:20;;;;;;;;;3.00;3.00;;;;;;;;4980711;28;47846;-84
2022/06/02 11:39:56;;;;;;;;;;;;;;;;;;;;;
2022/06/02 11:42:46;;;;;;;;;6.00;5.00;;;;;;;;5017763;28;72978;-84
2022/06/02 11:45:24;;;;;;;;;4.75;4.00;;;;;;;;5001188;28;46867;-84
2022/06/02 11:48:16;;;;;;;;;3.75;3.75;;;;;;;;5018570;28;47040;-84
2022/06/02 11:50:54;;;;;;;;;;;;;;;;;;;;;
2022/06/02 11:54:04;;;;;;;;;4.25;4.25;;;;;;;;5017622;28;72958;-84
2022/06/02 11:56:48;;;;;;;;;;;;;;;;;;;;;
2022/06/02 12:03:10;;;;;;;;;;;;;;;;;;;;;
2022/06/02 12:05:24;;;;;;;;;4.00;4.00;;;;;;;;5010150;28;47180;-85
2022/06/02 12:08:26;;;;;;;;;;;;;;;;;;;;;
2022/06/02 12:12:02;;;;;;;;;;;;;;;;;;;;;
2022/06/02 12:14:12;;;;;;;;;4.50;4.50;;;;;;;;5005590;28;47215;-85
2022/06/02 12:23:04;;;;;;;;;;;;;;;;;;;;;
2022/06/02 12:28:42;;;;;;;;;3.25;3.00;;;;;;;;4981621;28;47157;-84
2022/06/02 12:31:20;;;;;;;;;3.00;3.00;;;;;;;;5018228;28;47154;-84
2022/06/02 12:33:48;;;;;;;;;5.00;4.00;;;;;;;;4999957;28;48987;-84
2022/06/02 12:36:38;;;;;;;;;4.00;3.50;;;;;;;;5017401;28;46878;-84
2022/06/02 12:39:15;;;;;;;;;4.00;4.00;;;;;;;;5000225;28;47001;-84
2022/06/02 12:42:01;;;;;;;;;3.50;3.50;;;;;;;;5017992;28;47123;-84
2022/06/02 12:44:35;;;;;;;;;4.00;4.00;;;;;;;;4999643;28;49625;-84
2022/06/02 12:47:01;;;;;;;;;8.50;3.00;;;;;;;;5017973;28;46873;-84
2022/06/02 12:49:35;;;;;;;;;5.00;4.75;;;;;;;;5000003;28;47159;-84
2022/06/02 12:52:12;;;;;;;;;5.75;5.00;;;;;;;;5000131;28;46815;-84
2022/06/02 12:54:57;;;;;;;;;5.25;4.50;;;;;;;;4999950;28;49102;-83
2022/06/02 12:57:31;;;;;;;;;7.25;3.00;;;;;;;;4999638;28;47979;-83
2022/06/02 13:03:13;;;;;;;;;13.50;4.00;;;;;;;;4998064;28;47167;-84
2022/06/02 13:05:57;;;;;;;;;4.75;4.25;;;;;;;;4997725;28;46937;-84
2022/06/02 13:08:44;;;;;;;;;3.75;3.25;;;;;;;;4980125;28;47153;-84
2022/06/02 13:11:20;;;;;;;;;5.25;4.75;;;;;;;;4980164;28;46958;-84
2022/06/02 13:14:04;;;;;;;;;4.25;4.00;;;;;;;;4980055;28;47084;-84
2022/06/02 13:16:32;;;;;;;;;4.00;3.00;;;;;;;;4997782;28;46848;-83
2022/06/02 13:19:19;;;;;;;;;4.25;4.25;;;;;;;;4980175;28;47172;-83
2022/06/02 13:22:06;;;;;;;;;5.50;4.50;;;;;;;;4981875;28;47108;-84
2022/06/02 13:24:53;;;;;;;;;8.50;2.00;;;;;;;;4980165;28;47025;-83
2022/06/02 13:27:37;;;;;;;;;4.00;3.00;;;;;;;;4989265;28;48251;-83
2022/06/02 13:30:02;;;;;;;;;4.00;4.00;;;;;;;;5017361;28;46897;-83
2022/06/02 13:32:46;;;;;;;;;9.75;2.00;;;;;;;;5017637;28;46916;-83
2022/06/02 13:35:29;;;;;;;;;9.00;2.00;;;;;;;;5017612;28;46916;-83
2022/06/02 13:38:08;;;;;;;;;2.00;2.00;;;;;;;;4999299;28;48575;-83
2022/06/02 13:40:42;;;;;;;;;6.00;2.75;;;;;;;;5017607;28;46777;-83
2022/06/02 13:43:13;;;;;;;;;9.25;2.75;;;;;;;;4999264;28;47114;-84
2022/06/02 13:45:57;;;;;;;;;8.00;3.25;;;;;;;;4999668;28;46887;-84
2022/06/02 13:48:39;;;;;;;;;5.50;3.00;;;;;;;;5020409;28;47791;-84
2022/06/02 13:51:13;;;;;;;;;7.00;0.00;;;;;;;;5020486;28;47229;-84
2022/06/02 13:59:55;;;;;;;;;9.00;2.00;;;;;;;;5008351;28;47486;-84
2022/06/02 14:02:39;;;;;;;;;8.25;3.00;;;;;;;;5000560;28;46899;-83
2022/06/02 14:05:23;;;;;;;;;6.00;2.25;;;;;;;;5000580;28;46998;-83
2022/06/02 14:07:48;;;;;;;;;9.25;2.50;;;;;;;;5000814;28;46934;-83
2022/06/02 14:10:40;;;;;;;;;7.00;2.75;;;;;;;;4982604;28;48354;-83
2022/06/02 14:13:08;;;;;;;;;9.00;2.00;;;;;;;;5000282;28;47026;-83
2022/06/02 14:15:53;;;;;;;;;8.00;2.00;;;;;;;;4982645;28;46991;-83
2022/06/02 14:18:24;;;;;;;;;9.00;2.00;;;;;;;;4982797;28;47281;-83
2022/06/02 14:21:08;;;;;;;;;8.00;0.25;;;;;;;;4982492;28;47959;-83
2022/06/02 14:23:48;;;;;;;;;8.75;2.00;;;;;;;;5000092;28;47133;-83
2022/06/02 14:26:30;;;;;;;;;9.00;2.00;;;;;;;;5000884;28;46984;-83
2022/06/02 14:29:08;;;;;;;;;8.50;3.00;;;;;;;;5020435;28;47044;-83
2022/06/02 14:31:45;;;;;;;;;8.00;1.00;;;;;;;;5001784;28;48553;-83
2022/06/02 14:34:14;;;;;;;;;8.00;2.00;;;;;;;;5001816;28;47163;-83
2022/06/02 14:36:58;;;;;;;;;10.00;2.00;;;;;;;;5001776;28;46848;-83
2022/06/02 14:39:30;;;;;;;;;2.00;2.00;;;;;;;;5001985;28;47282;-83
2022/06/02 14:42:15;;;;;;;;;3.00;3.00;;;;;;;;5001620;28;48135;-83
2022/06/02 14:44:49;;;;;;;;;4.00;3.00;;;;;;;;5001656;28;47139;-83
2022/06/02 14:47:23;;;;;;;;;4.00;3.75;;;;;;;;5001725;28;47000;-83
2022/06/02 14:49:58;;;;;;;;;3.00;3.00;;;;;;;;5002068;28;46938;-83
2022/06/02 14:52:42;;;;;;;;;2.25;2.25;;;;;;;;5001379;28;49202;-83
2022/06/02 14:55:09;;;;;;;;;2.00;2.00;;;;;;;;5019532;28;46949;-83
2022/06/02 14:57:39;;;;;;;;;3.50;2.00;;;;;;;;5018781;28;47900;-83
2022/06/02 15:00:08;;;;;;;;;3.00;2.00;;;;;;;;4989565;28;47058;-82
2022/06/02 15:02:48;;;;;;;;;2.25;2.25;;;;;;;;4981571;28;49498;-82
2022/06/02 15:05:22;;;;;;;;;1.75;1.00;;;;;;;;4999493;28;46946;-82
2022/06/02 15:07:56;;;;;;;;;3.00;3.00;;;;;;;;4999594;28;46883;-83
2022/06/02 15:10:22;;;;;;;;;4.00;3.25;;;;;;;;4984879;28;46994;-83
2022/06/02 15:12:59;;;;;;;;;3.00;3.00;;;;;;;;5009337;28;46947;-83
2022/06/02 15:15:28;;;;;;;;;5.00;3.00;;;;;;;;4981368;28;47681;-83
2022/06/02 15:18:05;;;;;;;;;3.75;3.75;;;;;;;;4981675;28;46978;-83
2022/06/02 15:20:31;;;;;;;;;0.75;0.75;;;;;;;;4981736;28;46837;-83
2022/06/02 15:23:35;;;;;;;;;4.75;3.00;;;;;;;;4999203;28;46892;-83
2022/06/02 15:26:16;;;;;;;;;2.00;2.00;;;;;;;;4911252;28;47109;-83
2022/06/02 15:28:54;;;;;;;;;3.00;3.00;;;;;;;;4884073;29;47091;-83
2022/06/02 15:31:26;;;;;;;;;3.50;3.50;;;;;;;;4964671;28;46815;-82
2022/06/02 15:33:57;;;;;;;;;2.00;2.00;;;;;;;;4999143;28;47001;-82
2022/06/02 15:36:23;;;;;;;;;3.00;3.00;;;;;;;;4981109;28;47411;-82
2022/06/02 15:39:06;;;;;;;;;2.00;2.00;;;;;;;;4999046;28;46860;-82
2022/06/02 15:41:41;;;;;;;;;3.75;3.25;;;;;;;;4998907;28;46859;-82
2022/06/02 15:44:12;;;;;;;;;2.25;2.25;;;;;;;;4981076;28;48160;-82
2022/06/02 15:46:53;;;;;;;;;1.50;1.00;;;;;;;;4981194;28;46942;-82
2022/06/02 15:49:27;;;;;;;;;5.00;3.00;;;;;;;;4981160;28;46895;-82
2022/06/02 15:52:05;;;;;;;;;2.75;2.75;;;;;;;;4999123;28;47223;-82
2022/06/02 15:54:30;;;;;;;;;3.50;3.50;;;;;;;;4981130;28;47345;-82
2022/06/02 15:56:56;;;;;;;;;3.00;3.00;;;;;;;;4998565;28;47021;-82
2022/06/02 15:59:30;;;;;;;;;3.00;3.00;;;;;;;;4998635;28;46997;-82
2022/06/02 16:02:14;;;;;;;;;6.00;3.00;;;;;;;;4998846;28;47093;-82
2022/06/02 16:04:55;;;;;;;;;1.50;1.50;;;;;;;;4980769;28;48716;-82
2022/06/02 16:07:29;;;;;;;;;3.25;2.00;;;;;;;;4998733;28;47067;-82
2022/06/02 16:13:04;;;;;;;;;3.00;3.00;;;;;;;;4998701;28;47302;-82
2022/06/02 16:15:48;;;;;;;;;3.00;3.00;;;;;;;;4980550;28;48523;-82
2022/06/02 16:18:28;;;;;;;;;3.00;3.00;;;;;;;;4998424;28;47170;-82
2022/06/02 16:21:12;;;;;;;;;2.50;2.50;;;;;;;;4980694;28;47088;-82
2022/06/02 16:23:53;;;;;;;;;2.00;2.00;;;;;;;;4999590;28;47255;-82
2022/06/02 16:26:40;;;;;;;;;2.75;2.75;;;;;;;;4999818;28;48522;-82
2022/06/02 16:29:05;;;;;;;;;2.50;2.50;;;;;;;;5000219;28;47578;-82
2022/06/02 16:31:42;;;;;;;;;2.75;2.00;;;;;;;;5018116;28;46834;-82
2022/06/02 16:34:26;;;;;;;;;3.00;2.75;;;;;;;;5000274;28;47321;-82
2022/06/02 16:36:58;;;;;;;;;1.50;1.50;;;;;;;;5000074;28;48242;-82
2022/06/02 16:39:35;;;;;;;;;4.00;4.00;;;;;;;;5000140;28;47089;-82
2022/06/02 16:42:22;;;;;;;;;2.50;2.00;;;;;;;;5017876;28;46878;-82
2022/06/02 16:45:00;;;;;;;;;2.00;2.00;;;;;;;;5018188;28;46918;-82
2022/06/02 16:47:34;;;;;;;;;3.25;3.25;;;;;;;;5017943;28;47778;-82
2022/06/02 16:50:18;;;;;;;;;1.00;1.00;;;;;;;;5017889;28;46894;-82
2022/06/02 16:52:46;;;;;;;;;3.00;3.00;;;;;;;;4999926;28;47145;-82
2022/06/02 16:55:30;;;;;;;;;4.25;2.25;;;;;;;;5018186;28;46969;-82
2022/06/02 16:58:16;;;;;;;;;3.00;2.50;;;;;;;;5017588;28;47087;-82
2022/06/02 17:04:14;;;;;;;;;5.50;2.50;;;;;;;;5007772;28;46948;-82
2022/06/02 17:06:42;;;;;;;;;2.00;2.00;;;;;;;;5001728;28;47521;-82
2022/06/02 17:09:28;;;;;;;;;3.75;3.25;;;;;;;;4989687;28;47080;-82
2022/06/02 17:12:00;;;;;;;;;3.75;3.00;;;;;;;;4995571;28;46832;-81
2022/06/02 17:14:49;;;;;;;;;3.00;2.50;;;;;;;;5006057;28;47012;-81
2022/06/02 17:18:07;;;;;;;;;2.75;2.75;;;;;;;;5009980;28;47269;-81
2022/06/02 17:20:56;;;;;;;;;3.00;3.00;;;;;;;;4957596;28;47261;-83
2022/06/02 17:23:45;;;;;;;;;2.75;2.75;;;;;;;;4991867;28;48080;-83
2022/06/02 17:26:28;;;;;;;;;1.50;1.50;;;;;;;;4993762;28;46898;-83
2022/06/02 17:32:21;;;;;;;;;1.50;1.50;;;;;;;;4993301;28;47075;-82
2022/06/02 17:34:56;;;;;;;;;3.00;3.00;;;;;;;;4998882;28;47004;-82
2022/06/02 17:37:39;;;;;;;;;2.25;2.25;;;;;;;;4969664;28;46954;-82
2022/06/02 17:40:23;;;;;;;;;2.25;2.25;;;;;;;;4985775;28;48162;-81
2022/06/02 17:43:07;;;;;;;;;3.00;3.00;;;;;;;;4989614;28;49220;-81
2022/06/02 17:45:33;;;;;;;;;3.50;3.50;;;;;;;;5003898;28;47364;-81
2022/06/02 17:48:13;;;;;;;;;3.75;3.75;;;;;;;;4998234;28;46830;-81
2022/06/02 17:50:38;;;;;;;;;1.75;1.75;;;;;;;;5006786;28;47333;-82
2022/06/02 17:53:24;;;;;;;;;2.75;2.75;;;;;;;;5003413;28;47618;-84
2022/06/02 17:55:50;;;;;;;;;4.00;2.00;;;;;;;;4988834;28;47697;-81
2022/06/02 17:58:26;;;;;;;;;2.00;2.00;;;;;;;;4997054;28;47015;-81
2022/06/02 18:00:56;;;;;;;;;2.25;2.25;;;;;;;;4987319;28;46812;-81
2022/06/02 18:03:24;;;;;;;;;3.00;2.50;;;;;;;;5005476;28;47029;-81
2022/06/02 18:06:09;;;;;;;;;3.00;3.00;;;;;;;;4988451;28;47005;-81
2022/06/02 18:08:54;;;;;;;;;4.00;4.00;;;;;;;;4989432;28;47117;-81
2022/06/02 18:11:34;;;;;;;;;2.00;2.00;;;;;;;;5006090;28;46862;-80
2022/06/02 18:14:02;;;;;;;;;3.00;3.00;;;;;;;;4991226;28;48534;-81
2022/06/02 18:16:46;;;;;;;;;8.25;2.00;;;;;;;;5008786;28;46902;-81
2022/06/02 18:19:20;;;;;;;;;8.75;1.75;;;;;;;;4995040;28;47048;-84
2022/06/02 18:22:06;;;;;;;;;8.00;2.00;;;;;;;;5009721;28;47023;-82
2022/06/02 18:24:32;;;;;;;;;8.00;1.00;;;;;;;;4985987;28;48086;-83
2022/06/02 18:26:59;;;;;;;;;3.25;3.00;;;;;;;;4998610;28;47090;-86
2022/06/02 18:29:37;;;;;;;;;2.00;2.00;;;;;;;;5020855;28;46999;-82
2022/06/02 18:32:21;;;;;;;;;4.25;3.75;;;;;;;;4988570;28;47230;-82
2022/06/02 18:34:55;;;;;;;;;4.00;4.00;;;;;;;;4984366;28;48606;-81
2022/06/02 18:37:39;;;;;;;;;10.50;2.00;;;;;;;;5000683;28;47183;-82
2022/06/02 18:40:17;;;;;;;;;3.25;3.25;;;;;;;;5019840;28;47158;-82
2022/06/02 18:42:45;;;;;;;;;3.00;2.00;;;;;;;;5019743;28;47431;-83
2022/06/02 18:45:19;;;;;;;;;3.00;3.00;;;;;;;;5001837;28;48356;-82
2022/06/02 18:48:05;;;;;;;;;9.00;2.00;;;;;;;;5001965;28;47581;-81
2022/06/02 18:50:49;;;;;;;;;3.00;1.75;;;;;;;;5018663;28;46867;-82
2022/06/02 18:53:33;;;;;;;;;3.50;3.00;;;;;;;;5001821;28;46852;-83
2022/06/02 18:56:25;;;;;;;;;7.50;2.00;;;;;;;;5001451;28;47094;-82
2022/06/02 18:59:03;;;;;;;;;7.75;2.00;;;;;;;;4995883;28;48011;-82
2022/06/02 19:01:28;;;;;;;;;9.50;3.00;;;;;;;;4994493;28;46846;-82
2022/06/02 19:04:34;;;;;;;;;10.25;1.75;;;;;;;;4999925;28;46933;-83
2022/06/02 19:15:53;;;;;;;;;4.50;4.50;;;;;;;;4999760;28;46809;-84
2022/06/02 19:19:15;;;;;;;;;4.25;4.25;;;;;;;;5005698;28;47046;-84
2022/06/02 19:21:45;;;;;;;;;3.25;3.25;;;;;;;;4998559;28;46982;-83
2022/06/02 19:24:16;;;;;;;;;4.75;4.75;;;;;;;;4986718;28;47004;-83
2022/06/02 19:27:07;;;;;;;;;5.25;5.00;;;;;;;;4985829;28;47077;-83
2022/06/02 19:29:44;;;;;;;;;6.00;2.25;;;;;;;;4963685;28;48652;-83
2022/06/02 19:32:23;;;;;;;;;6.00;4.00;;;;;;;;5018978;28;47131;-83
2022/06/02 19:34:55;;;;;;;;;4.25;3.50;;;;;;;;5018805;28;46843;-83
2022/06/02 19:37:28;;;;;;;;;3.00;3.00;;;;;;;;5019080;28;47314;-83
2022/06/02 19:40:00;;;;;;;;;5.00;5.00;;;;;;;;5000697;28;48790;-83
2022/06/02 19:43:05;;;;;;;;;6.00;5.25;;;;;;;;5018416;28;47145;-83
2022/06/02 19:48:29;;;;;;;;;5.00;5.00;;;;;;;;5004694;28;47258;-83
2022/06/02 19:51:09;;;;;;;;;6.50;4.75;;;;;;;;5018560;28;48285;-83
2022/06/02 19:53:53;;;;;;;;;4.75;4.75;;;;;;;;5000491;28;47258;-74
2022/06/02 20:50:11;;;;;;;;;6.00;4.50;;;;;;;;4867734;29;47281;-84
2022/06/02 20:55:48;;;;;;;;;3.75;3.75;;;;;;;;4903515;28;46918;-83
2022/06/02 20:58:17;;;;;;;;;5.25;5.25;;;;;;;;4930259;28;47176;-84
2022/06/02 21:01:33;;;;;;;;;4.25;4.25;;;;;;;;4973780;28;47383;-84
2022/06/02 21:04:06;;;;;;;;;6.00;5.25;;;;;;;;4999347;28;47260;-83
2022/06/02 21:13:14;;;;;;;;;6.25;4.75;;;;;;;;4931627;28;47331;-83
2022/06/02 21:16:08;;;;;;;;;;;;;;;;;;;;;
2022/06/02 21:50:53;;;;;;;;;;;;;;;;;;;;;
